Time;durP1;ratioP1;P1;durP2;ratioP2;P2;SDS_P1;SDS_P2;PMS_P1;PMS_P2;Temp;Humidity;BMP_temperature;BMP_pressure;BME280_temperature;BME280_humidity;BME280_pressure;Samples;Min_cycle;Max_cycle;Signal;HPM_P1;HPM_P2
2022/05/14 00:01:33;;;;;;;11.83;3.80;;;;;;;-145.69;100.00;72280.03;5075548;28;20209;-76
2022/05/14 00:04:00;;;;;;;9.57;3.97;;;;;;;-145.69;100.00;72280.03;5075613;28;20399;-76
2022/05/14 00:06:30;;;;;;;10.17;4.23;;;;;;;-145.69;100.00;72278.03;5075596;28;20236;-76
2022/05/14 00:09:01;;;;;;;8.47;4.20;;;;;;;-145.69;100.00;72268.06;5075818;28;20202;-76
2022/05/14 00:14:18;;;;;;;11.77;4.20;;;;;;;-145.69;100.00;72258.13;5075537;28;20194;-76
2022/05/14 00:16:45;;;;;;;10.07;4.50;;;;;;;-145.69;100.00;72262.09;5075390;28;20198;-76
2022/05/14 00:19:13;;;;;;;16.63;4.30;;;;;;;-145.69;100.00;72258.13;5075681;28;20286;-76
2022/05/14 00:21:43;;;;;;;10.70;4.50;;;;;;;-145.69;100.00;72268.06;5075467;28;20210;-76
2022/05/14 00:24:10;;;;;;;9.23;4.23;;;;;;;-145.69;100.00;72282.00;5075190;28;20230;-76
2022/05/14 00:26:40;;;;;;;7.33;3.97;;;;;;;-145.69;100.00;72295.94;5075006;28;20199;-76
2022/05/14 00:29:08;;;;;;;13.40;3.93;;;;;;;-145.69;100.00;72295.94;5075180;28;20651;-76
2022/05/14 00:31:37;;;;;;;12.07;3.90;;;;;;;-145.69;100.00;72297.94;5074605;28;20652;-76
2022/05/14 00:34:04;;;;;;;11.70;3.87;;;;;;;-145.69;100.00;72301.91;5075346;28;20198;-76
2022/05/14 00:36:31;;;;;;;15.47;4.27;;;;;;;-145.69;100.00;72305.91;5074854;28;20624;-76
2022/05/14 00:39:02;;;;;;;9.63;4.00;;;;;;;-145.69;100.00;72307.88;5075129;28;20206;-77
2022/05/14 00:41:29;;;;;;;14.23;4.13;;;;;;;-145.69;100.00;72313.84;5074402;28;20213;-76
2022/05/14 00:43:57;;;;;;;10.43;3.70;;;;;;;-145.69;100.00;72309.88;5074586;28;20191;-76
2022/05/14 00:46:26;;;;;;;10.40;4.07;;;;;;;-145.69;100.00;72313.84;5074980;28;20281;-76
2022/05/14 00:48:57;;;;;;;12.70;3.87;;;;;;;-145.69;100.00;72309.88;5074750;28;20199;-76
2022/05/14 00:51:28;;;;;;;15.10;3.87;;;;;;;-145.69;100.00;72305.91;5074831;28;20226;-76
2022/05/14 00:54:00;;;;;;;9.77;3.97;;;;;;;-145.69;100.00;72295.94;5074969;28;20285;-76
2022/05/14 00:56:36;;;;;;;17.43;3.90;;;;;;;-145.69;100.00;72295.94;5074216;28;20368;-76
2022/05/14 00:59:06;;;;;;;10.03;3.67;;;;;;;-145.69;100.00;72309.88;5074953;28;20538;-76
2022/05/14 01:01:33;;;;;;;9.83;3.53;;;;;;;-145.69;100.00;72313.84;5074497;28;20256;-76
2022/05/14 01:04:03;;;;;;;11.40;3.53;;;;;;;-145.69;100.00;72305.91;5074489;28;20198;-76
2022/05/14 01:06:30;;;;;;;9.57;3.47;;;;;;;-145.69;100.00;72309.88;5074776;28;20626;-76
2022/05/14 01:08:57;;;;;;;10.30;3.63;;;;;;;-145.69;100.00;72317.84;5074478;28;20203;-76
2022/05/14 01:11:24;;;;;;;9.17;3.50;;;;;;;-145.69;100.00;72309.88;5074482;28;20290;-76
2022/05/14 01:13:53;;;;;;;15.37;3.90;;;;;;;-145.69;100.00;72317.84;5073673;28;20195;-76
2022/05/14 01:16:21;;;;;;;12.13;4.20;;;;;;;-145.69;100.00;72309.88;5074119;28;20703;-76
2022/05/14 01:18:48;;;;;;;11.27;3.57;;;;;;;-145.69;100.00;72311.88;5074335;28;20293;-76
2022/05/14 01:21:25;;;;;;;9.97;3.70;;;;;;;-145.69;100.00;72317.84;5074529;28;20206;-76
2022/05/14 01:26:58;;;;;;;12.73;3.63;;;;;;;-145.69;100.00;72317.84;5074261;28;20699;-77
2022/05/14 01:29:26;;;;;;;10.03;3.93;;;;;;;-145.69;100.00;72305.91;5073914;28;20244;-77
2022/05/14 01:31:54;;;;;;;8.53;3.83;;;;;;;-145.69;100.00;72301.91;5073638;28;20222;-77
2022/05/14 01:34:24;;;;;;;15.20;4.50;;;;;;;-145.69;100.00;72291.97;5074005;28;20201;-77
2022/05/14 01:36:51;;;;;;;22.17;4.43;;;;;;;-145.69;100.00;72278.03;5073717;28;20241;-77
2022/05/14 01:39:17;;;;;;;16.37;4.03;;;;;;;-145.69;100.00;72266.09;5073685;28;20207;-76
2022/05/14 01:41:44;;;;;;;10.20;4.07;;;;;;;-145.69;100.00;72248.19;5073851;28;20276;-76
2022/05/14 01:44:12;;;;;;;9.63;3.63;;;;;;;-145.69;100.00;72244.19;5073534;28;20653;-77
2022/05/14 01:46:39;;;;;;;4.87;3.67;;;;;;;-145.69;100.00;72244.19;5073858;28;20218;-77
2022/05/14 01:49:05;;;;;;;8.40;3.27;;;;;;;-145.69;100.00;72234.25;5073516;28;20195;-76
2022/05/14 01:51:32;;;;;;;11.50;3.50;;;;;;;-145.69;100.00;72230.25;5073528;28;20608;-76
2022/05/14 01:54:01;;;;;;;9.27;2.90;;;;;;;-145.69;100.00;72214.34;5071952;28;20198;-77
2022/05/14 01:56:28;;;;;;;10.10;3.20;;;;;;;-145.69;100.00;72204.38;5071588;28;20206;-76
2022/05/14 01:58:54;;;;;;;6.73;2.93;;;;;;;-145.69;100.00;72190.47;5073169;28;20201;-76
2022/05/14 02:01:24;;;;;;;13.33;2.87;;;;;;;-145.69;100.00;72186.47;5073247;28;20191;-76
2022/05/14 02:03:53;;;;;;;10.50;2.80;;;;;;;-145.69;100.00;72198.41;5073866;28;20199;-76
2022/05/14 02:06:21;;;;;;;10.57;2.60;;;;;;;-145.69;100.00;72204.38;5073427;28;20199;-76
2022/05/14 02:08:48;;;;;;;9.70;2.40;;;;;;;-145.69;100.00;72214.34;5073512;28;20252;-76
2022/05/14 02:11:16;;;;;;;7.83;2.47;;;;;;;-145.69;100.00;72232.25;5073349;28;20199;-76
2022/05/14 02:13:44;;;;;;;7.80;3.20;;;;;;;-145.69;100.00;72242.22;5073185;28;20218;-76
2022/05/14 02:16:13;;;;;;;10.73;2.57;;;;;;;-145.69;100.00;72254.16;5072537;28;20723;-77
2022/05/14 02:18:41;;;;;;;6.07;2.67;;;;;;;-145.69;100.00;72258.13;5073326;28;20218;-76
2022/05/14 02:21:08;;;;;;;3.30;2.47;;;;;;;-145.69;100.00;72250.16;5073133;28;20603;-77
2022/05/14 02:23:38;;;;;;;9.33;2.83;;;;;;;-145.69;100.00;72246.19;5072565;28;20260;-76
2022/05/14 02:26:07;;;;;;;7.03;2.67;;;;;;;-145.69;100.00;72252.16;5072807;28;20612;-76
2022/05/14 02:28:33;;;;;;;9.20;2.73;;;;;;;-145.69;100.00;72258.13;5072955;28;20234;-77
2022/05/14 02:31:03;;;;;;;11.53;2.53;;;;;;;-145.69;100.00;72266.09;5072594;28;20615;-76
2022/05/14 02:33:30;;;;;;;5.73;2.67;;;;;;;-145.69;100.00;72268.06;5073074;28;20232;-76
2022/05/14 02:35:58;;;;;;;9.07;2.47;;;;;;;-145.69;100.00;72284.00;5072760;28;20230;-76
2022/05/14 02:38:27;;;;;;;8.03;2.80;;;;;;;-145.69;100.00;72289.97;5072909;28;20252;-76
2022/05/14 02:40:54;;;;;;;10.50;3.10;;;;;;;-145.69;100.00;72297.94;5072802;28;20221;-76
2022/05/14 02:43:21;;;;;;;8.57;2.70;;;;;;;-145.69;100.00;72305.91;5072734;28;20195;-76
2022/05/14 02:45:49;;;;;;;4.67;2.50;;;;;;;-145.69;100.00;72329.78;5073042;28;20202;-76
2022/05/14 02:48:17;;;;;;;13.77;3.23;;;;;;;-145.69;100.00;72331.78;5072720;28;20725;-77
2022/05/14 02:50:45;;;;;;;5.50;2.47;;;;;;;-145.69;100.00;72323.81;5072479;28;20249;-77
2022/05/14 02:53:16;;;;;;;6.23;2.83;;;;;;;-145.69;100.00;72317.84;5058152;28;20272;-76
2022/05/14 02:55:42;;;;;;;6.67;2.70;;;;;;;-145.69;100.00;72311.88;5052862;28;20624;-77
2022/05/14 02:58:09;;;;;;;10.40;3.03;;;;;;;-145.69;100.00;72319.81;5069061;28;20604;-77
2022/05/14 03:00:35;;;;;;;8.77;2.43;;;;;;;-145.69;100.00;72337.75;5072665;28;20247;-76
2022/05/14 03:03:03;;;;;;;13.33;4.10;;;;;;;-145.69;100.00;72351.66;5060774;28;20202;-76
2022/05/14 03:05:30;;;;;;;4.13;2.23;;;;;;;-145.69;100.00;72377.53;5072418;28;20248;-76
2022/05/14 03:07:56;;;;;;;7.17;2.90;;;;;;;-145.69;100.00;72385.50;5072957;28;20289;-76
2022/05/14 03:10:24;;;;;;;3.10;2.23;;;;;;;-145.69;100.00;72381.53;5072738;28;20252;-76
2022/05/14 03:12:51;;;;;;;5.67;2.30;;;;;;;-145.69;100.00;72393.47;5072253;28;20206;-76
2022/05/14 03:15:17;;;;;;;5.50;2.40;;;;;;;-145.69;100.00;72395.47;5072659;28;20206;-76
2022/05/14 03:17:47;;;;;;;5.50;2.57;;;;;;;-145.69;100.00;72387.50;5072652;28;20206;-76
2022/05/14 03:20:16;;;;;;;10.23;2.90;;;;;;;-145.69;100.00;72379.53;5072411;28;20203;-77
2022/05/14 03:22:46;;;;;;;8.30;3.07;;;;;;;-145.69;100.00;72379.53;5072542;28;20195;-76
2022/05/14 03:25:15;;;;;;;18.83;3.30;;;;;;;-145.69;100.00;72381.53;5072465;28;20198;-76
2022/05/14 03:27:43;;;;;;;6.73;2.90;;;;;;;-145.69;100.00;72379.53;5072039;28;20203;-76
2022/05/14 03:30:10;;;;;;;7.67;3.00;;;;;;;-145.69;100.00;72381.53;5072122;28;20221;-76
2022/05/14 03:32:37;;;;;;;7.83;2.30;;;;;;;-145.69;100.00;72383.53;5072343;28;20447;-76
2022/05/14 03:35:08;;;;;;;8.20;3.03;;;;;;;-145.69;100.00;72391.47;5074334;28;20429;-76
2022/05/14 03:37:35;;;;;;;10.00;2.87;;;;;;;-145.69;100.00;72395.47;5075783;28;20637;-76
2022/05/14 03:40:01;;;;;;;10.40;2.80;;;;;;;-145.69;100.00;72407.41;5075810;28;20564;-76
2022/05/14 03:42:28;;;;;;;10.20;3.00;;;;;;;-145.69;100.00;72405.41;5076143;28;20198;-77
2022/05/14 03:44:56;;;;;;;9.50;3.20;;;;;;;-145.69;100.00;72409.38;5075744;28;20201;-76
2022/05/14 03:47:22;;;;;;;10.73;2.70;;;;;;;-145.69;100.00;72413.38;5075608;28;20210;-77
2022/05/14 03:49:50;;;;;;;15.03;2.93;;;;;;;-145.69;100.00;72409.38;5076102;28;20234;-76
2022/05/14 03:52:17;;;;;;;8.93;3.00;;;;;;;-145.69;100.00;72405.41;5075141;28;20195;-76
2022/05/14 03:54:45;;;;;;;8.53;2.90;;;;;;;-145.69;100.00;72413.38;5072280;28;20195;-76
2022/05/14 03:57:13;;;;;;;7.73;2.40;;;;;;;-145.69;100.00;72401.44;5075435;28;20296;-76
2022/05/14 03:59:40;;;;;;;7.57;2.50;;;;;;;-145.69;100.00;72401.44;5075654;28;20293;-76
2022/05/14 04:02:08;;;;;;;7.27;2.90;;;;;;;-145.69;100.00;72389.50;5075512;28;20199;-76
2022/05/14 04:04:37;;;;;;;8.37;2.23;;;;;;;-145.69;100.00;72407.41;5075607;28;20241;-76
2022/05/14 04:07:07;;;;;;;5.40;2.37;;;;;;;-145.69;100.00;72407.41;5075780;28;20213;-76
2022/05/14 04:09:33;;;;;;;10.53;2.60;;;;;;;-145.69;100.00;72417.34;5075928;28;20202;-76
2022/05/14 04:12:00;;;;;;;9.82;2.88;;;;;;;-145.69;100.00;72419.34;5075445;28;20488;-76
2022/05/14 04:14:26;;;;;;;7.43;2.80;;;;;;;-145.69;100.00;72421.34;5074722;28;20202;-76
2022/05/14 04:16:53;;;;;;;11.97;3.03;;;;;;;-145.69;100.00;72425.31;5075576;28;20272;-76
2022/05/14 04:19:20;;;;;;;8.50;2.27;;;;;;;-145.69;100.00;72417.34;5075651;28;20202;-76
2022/05/14 04:21:47;;;;;;;11.43;2.80;;;;;;;-145.69;100.00;72409.38;5075194;28;20260;-76
2022/05/14 04:24:14;;;;;;;9.63;3.30;;;;;;;-145.69;100.00;72407.41;5074826;28;20665;-76
2022/05/14 04:26:41;;;;;;;5.43;2.50;;;;;;;-145.69;100.00;72405.41;5075307;28;20199;-76
2022/05/14 04:29:11;;;;;;;9.53;2.77;;;;;;;-145.69;100.00;72405.41;5074920;28;20199;-76
2022/05/14 04:31:39;;;;;;;8.97;2.83;;;;;;;-145.69;100.00;72403.41;5075319;28;20203;-76
2022/05/14 04:34:06;;;;;;;9.67;2.97;;;;;;;-145.69;100.00;72401.44;5075313;28;20271;-76
2022/05/14 04:36:34;;;;;;;11.80;2.43;;;;;;;-145.69;100.00;72395.47;5074458;28;20280;-76
2022/05/14 04:39:03;;;;;;;7.93;2.63;;;;;;;-145.69;100.00;72397.44;5075138;28;20199;-76
2022/05/14 04:41:30;;;;;;;7.53;2.50;;;;;;;-145.69;100.00;72397.44;5074381;28;20206;-76
2022/05/14 04:43:57;;;;;;;8.07;2.50;;;;;;;-145.69;100.00;72407.41;5075211;28;20294;-76
2022/05/14 04:46:24;;;;;;;4.40;2.30;;;;;;;-145.69;100.00;72405.41;5074843;28;20202;-76
2022/05/14 04:48:50;;;;;;;8.93;2.50;;;;;;;-145.69;100.00;72409.38;5073739;28;20445;-76
2022/05/14 04:51:26;;;;;;;8.60;2.43;;;;;;;-145.69;100.00;72403.41;5074312;28;20755;-76
2022/05/14 04:53:54;;;;;;;4.73;2.20;;;;;;;-145.69;100.00;72397.44;5074750;28;20202;-76
2022/05/14 04:56:20;;;;;;;5.43;2.30;;;;;;;-145.69;100.00;72385.50;5074836;28;20223;-76
2022/05/14 04:58:50;;;;;;;6.63;2.03;;;;;;;-145.69;100.00;72369.59;5074926;28;20195;-76
2022/05/14 05:01:16;;;;;;;6.67;2.00;;;;;;;-145.69;100.00;72335.75;5074833;28;20557;-76
2022/05/14 05:03:44;;;;;;;9.37;2.23;;;;;;;-145.69;100.00;72321.81;5074235;28;20562;-77
2022/05/14 05:06:14;;;;;;;8.33;2.17;;;;;;;-145.69;100.00;72301.91;5074390;28;20209;-77
2022/05/14 05:08:42;;;;;;;12.40;2.00;;;;;;;-145.69;100.00;72291.97;5074161;28;20605;-76
2022/05/14 05:11:10;;;;;;;5.23;2.00;;;;;;;-145.69;100.00;72270.06;5074570;28;20203;-76
2022/05/14 05:13:37;;;;;;;5.93;2.20;;;;;;;-145.69;100.00;72240.22;5074582;28;20199;-76
2022/05/14 05:16:07;;;;;;;4.07;1.77;;;;;;;-145.69;100.00;72220.31;5074054;28;20223;-77
2022/05/14 05:18:37;;;;;;;3.03;1.70;;;;;;;-145.69;100.00;72194.44;5074278;28;20269;-77
2022/05/14 05:21:03;;;;;;;10.03;1.90;;;;;;;-145.69;100.00;72158.63;5073873;28;20672;-76
2022/05/14 05:23:30;;;;;;;7.27;2.00;;;;;;;-145.69;100.00;72154.63;5074443;28;20199;-76
2022/05/14 05:25:58;;;;;;;7.33;1.77;;;;;;;-145.69;100.00;72138.72;5073936;28;20202;-76
2022/05/14 05:28:27;;;;;;;2.23;1.60;;;;;;;-145.69;100.00;72108.84;5073949;28;20594;-76
2022/05/14 05:30:54;;;;;;;7.00;2.17;;;;;;;-145.69;100.00;72088.97;5074076;28;20206;-76
2022/05/14 05:33:24;;;;;;;10.10;1.47;;;;;;;-145.69;100.00;72069.06;5074186;28;20248;-76
2022/05/14 05:35:54;;;;;;;7.53;1.57;;;;;;;-145.69;100.00;72079.00;5073044;28;20750;-77
2022/05/14 05:38:20;;;;;;;5.63;1.33;;;;;;;-145.69;100.00;72059.09;5074112;28;20226;-77
2022/05/14 05:40:47;;;;;;;4.90;1.90;;;;;;;-145.69;100.00;72007.34;5073980;28;20205;-76
2022/05/14 05:43:14;;;;;;;8.80;1.60;;;;;;;-145.69;100.00;71995.41;5074007;28;20256;-77
2022/05/14 05:45:49;;;;;;;9.60;1.33;;;;;;;-145.69;100.00;71979.50;5073869;28;20205;-76
2022/05/14 05:48:19;;;;;;;13.30;1.87;;;;;;;-145.69;100.00;71959.59;5073659;28;20604;-76
2022/05/14 05:50:48;;;;;;;2.77;1.37;;;;;;;-145.69;100.00;71935.72;5073180;28;20229;-77
2022/05/14 05:53:16;;;;;;;3.40;1.50;;;;;;;-145.69;100.00;71911.84;5070810;28;20227;-77
2022/05/14 05:58:41;;;;;;;3.77;1.40;;;;;;;-145.69;100.00;71887.94;4990475;28;20559;-77
2022/05/14 06:01:12;;;;;;;5.45;1.40;;;;;;;-145.69;100.00;71848.16;4991844;28;20207;-76
2022/05/14 06:03:38;;;;;;;3.33;1.38;;;;;;;-145.69;100.00;71828.25;5019345;28;20723;-76
2022/05/14 06:06:08;;;;;;;2.53;1.20;;;;;;;-145.69;100.00;71784.47;5069950;28;20241;-77
2022/05/14 06:08:35;;;;;;;7.20;1.63;;;;;;;-145.69;100.00;71802.38;5073526;28;20217;-76
2022/05/14 06:11:01;;;;;;;13.70;1.38;;;;;;;-145.69;100.00;71748.66;5073412;28;20210;-77
2022/05/14 06:13:28;;;;;;;6.18;1.25;;;;;;;-145.69;100.00;71788.44;5073568;28;20206;-77
2022/05/14 06:15:56;;;;;;;7.53;1.80;;;;;;;-145.69;100.00;71806.34;5073151;28;20661;-76
2022/05/14 06:18:23;;;;;;;2.53;1.15;;;;;;;-145.69;100.00;71786.47;5072976;28;20226;-76
2022/05/14 06:20:50;;;;;;;5.28;1.73;;;;;;;-145.69;100.00;71682.97;5073036;28;20199;-77
2022/05/14 06:23:16;;;;;;;5.03;1.20;;;;;;;-145.69;100.00;71633.22;5073180;28;20202;-77
2022/05/14 06:25:43;;;;;;;5.80;1.20;;;;;;;-145.69;100.00;71549.66;5073062;28;20206;-77
2022/05/14 06:28:09;;;;;;;2.30;1.00;;;;;;;-145.69;98.81;71555.63;5073383;28;20214;-77
2022/05/14 06:30:38;;;;;;;4.25;1.23;;;;;;;-145.69;100.00;71545.66;5072680;28;20199;-78
2022/05/14 06:33:05;;;;;;;8.07;1.20;;;;;;;-145.69;100.00;71577.50;5072968;28;20202;-76
2022/05/14 06:35:35;;;;;;;3.72;1.00;;;;;;;-145.69;95.00;71468.06;5073094;28;20664;-78
2022/05/14 06:38:03;;;;;;;2.42;0.95;;;;;;;-145.69;92.55;71414.34;5072691;28;20226;-78
2022/05/14 06:40:29;;;;;;;1.75;0.80;;;;;;;-145.69;81.62;71279.03;5073196;28;20561;-75
2022/05/14 06:42:56;;;;;;;4.55;1.20;;;;;;;-145.69;80.52;71322.81;5073074;28;20232;-76
2022/05/14 06:45:24;;;;;;;9.90;1.48;;;;;;;-145.69;77.03;71288.97;5072911;28;20198;-78
2022/05/14 06:47:51;;;;;;;7.07;1.30;;;;;;;-145.69;79.21;71296.94;5072745;28;20202;-77
2022/05/14 06:50:18;;;;;;;4.57;1.10;;;;;;;-145.69;67.55;71231.28;5072881;28;20230;-77
2022/05/14 06:52:51;;;;;;;2.75;1.00;;;;;;;-145.69;71.89;71273.06;5072681;28;22093;-78
2022/05/14 06:55:21;;;;;;;4.47;1.10;;;;;;;-145.69;67.34;71308.88;5073098;28;20203;-76
2022/05/14 06:57:50;;;;;;;4.65;1.08;;;;;;;-145.69;70.85;71342.69;5072313;28;20223;-77
2022/05/14 07:00:18;;;;;;;2.70;0.95;;;;;;;-145.69;74.25;71406.38;5072831;28;20298;-77
2022/05/14 07:02:46;;;;;;;3.40;1.00;;;;;;;-145.69;75.38;71402.41;5072536;28;20206;-76
2022/05/14 07:07:59;;;;;;;3.75;1.10;;;;;;;-145.69;75.05;71372.53;5072816;28;20197;-76
2022/05/14 07:10:26;;;;;;;1.80;0.77;;;;;;;-145.69;72.18;71374.53;5076743;28;20199;-76
2022/05/14 07:12:55;;;;;;;6.80;1.25;;;;;;;-145.69;81.37;71366.56;5076876;28;20198;-76
2022/05/14 07:15:21;;;;;;;4.18;1.38;;;;;;;-145.69;83.83;71334.75;5076123;28;20194;-76
2022/05/14 07:17:48;;;;;;;7.28;1.10;;;;;;;-145.69;71.17;71348.66;5076639;28;20221;-76
2022/05/14 07:20:14;;;;;;;9.02;1.48;;;;;;;-145.69;77.86;71318.81;5076872;28;20207;-76
2022/05/14 07:22:41;;;;;;;7.43;1.00;;;;;;;-145.69;76.67;71318.81;5076435;28;20264;-76
2022/05/14 07:25:10;;;;;;;5.53;1.08;;;;;;;-145.69;76.90;71322.81;5076149;28;20594;-76
2022/05/14 07:27:36;;;;;;;8.18;1.30;;;;;;;-145.69;73.23;71320.81;5076592;28;20199;-76
2022/05/14 07:30:03;;;;;;;3.22;0.98;;;;;;;-145.69;62.71;71340.72;5076276;28;20203;-77
2022/05/14 07:32:29;;;;;;;3.10;1.05;;;;;;;-145.69;68.15;71314.84;5076318;28;20211;-76
2022/05/14 07:34:56;;;;;;;5.40;1.25;;;;;;;-145.69;63.59;71306.88;5076461;28;20225;-76
2022/05/14 07:37:25;;;;;;;3.90;1.02;;;;;;;-145.69;64.88;71300.91;5076050;28;20226;-76
2022/05/14 07:39:55;;;;;;;4.93;1.20;;;;;;;-145.69;63.05;71239.22;5076142;28;20206;-76
2022/05/14 07:42:30;;;;;;;3.58;1.13;;;;;;;-145.69;69.96;71203.41;5074610;28;20936;-76
2022/05/14 07:44:58;;;;;;;3.58;1.30;;;;;;;-145.69;70.28;71173.56;5076148;28;20559;-76
2022/05/14 07:47:25;;;;;;;8.32;1.45;;;;;;;-145.69;64.89;71203.41;5076117;28;20285;-77
2022/05/14 07:49:52;;;;;;;4.28;1.50;;;;;;;-145.69;65.96;71199.44;5075729;28;20233;-77
2022/05/14 07:52:20;;;;;;;3.90;1.02;;;;;;;-145.69;65.11;71171.56;5075971;28;20207;-77
2022/05/14 07:54:47;;;;;;;8.95;1.60;;;;;;;-145.69;64.65;71191.47;5073124;28;20244;-77
2022/05/14 07:57:16;;;;;;;4.68;1.30;;;;;;;-145.69;63.86;71207.38;5075402;28;20268;-76
2022/05/14 07:59:44;;;;;;;5.28;1.60;;;;;;;-145.69;66.58;71183.50;5058699;28;20191;-77
2022/05/14 08:02:21;;;;;;;7.32;1.60;;;;;;;-145.69;64.56;71203.41;5075309;28;20199;-77
2022/05/14 08:04:50;;;;;;;2.78;1.08;;;;;;;-145.69;62.09;71187.50;5075496;28;20655;-76
2022/05/14 08:07:17;;;;;;;5.80;1.20;;;;;;;-145.69;68.18;71235.25;5075189;28;20206;-77
2022/05/14 08:09:43;;;;;;;9.02;1.70;;;;;;;-145.69;64.03;71223.31;5075627;28;20596;-78
2022/05/14 08:12:12;;;;;;;3.92;1.63;;;;;;;-145.69;66.21;71239.22;5075551;28;20203;-78
2022/05/14 08:14:39;;;;;;;6.85;1.98;;;;;;;-145.69;65.87;71239.22;5075768;28;20207;-76
2022/05/14 08:17:07;;;;;;;6.82;1.55;;;;;;;-145.69;66.54;71261.13;5075214;28;20651;-76
2022/05/14 08:19:34;;;;;;;2.30;1.17;;;;;;;-145.69;67.15;71239.22;5075116;28;20557;-77
2022/05/14 08:24:44;;;;;;;5.63;1.60;;;;;;;-145.69;67.67;71235.25;5075452;28;20202;-76
2022/05/14 08:27:12;;;;;;;4.40;1.60;;;;;;;-145.69;67.28;71253.16;5075363;28;20199;-76
2022/05/14 08:29:39;;;;;;;6.30;1.60;;;;;;;-145.69;67.34;71231.28;5074839;28;20206;-76
2022/05/14 08:32:08;;;;;;;5.50;1.77;;;;;;;-145.69;68.34;71221.31;5075275;28;20203;-77
2022/05/14 08:34:35;;;;;;;5.25;1.50;;;;;;;-145.69;69.92;71205.41;5074961;28;20195;-78
2022/05/14 08:37:01;;;;;;;6.93;1.48;;;;;;;-145.69;62.71;71187.50;5075054;28;20202;-76
2022/05/14 08:39:33;;;;;;;2.70;1.23;;;;;;;-145.69;64.24;71179.53;5074978;28;20210;-76
2022/05/14 08:42:00;;;;;;;3.38;1.20;;;;;;;-145.69;64.79;71167.59;5075285;28;20241;-76
2022/05/14 08:44:30;;;;;;;5.35;1.83;;;;;;;-145.69;61.25;71191.47;5074975;28;20282;-77
2022/05/14 08:47:03;;;;;;;5.90;1.55;;;;;;;-145.69;61.94;71221.31;5073805;28;20438;-78
2022/05/14 08:49:35;;;;;;;9.55;1.75;;;;;;;-145.69;65.35;71239.22;5074964;28;20234;-77
2022/05/14 08:52:05;;;;;;;6.95;1.65;;;;;;;-145.69;70.90;71175.56;5075044;28;20209;-77
2022/05/14 08:54:32;;;;;;;8.38;1.80;;;;;;;-145.69;61.74;71169.59;5074502;28;20222;-77
2022/05/14 08:57:03;;;;;;;6.47;1.80;;;;;;;-145.69;63.63;71179.53;5074862;28;20207;-78
2022/05/14 08:59:51;;;;;;;5.35;1.95;;;;;;;-145.69;69.15;71195.47;5074567;28;20210;-76
2022/05/14 09:02:21;;;;;;;4.82;1.80;;;;;;;-145.69;68.99;71167.59;5054735;28;20210;-76
2022/05/14 09:04:50;;;;;;;3.10;1.83;;;;;;;-145.69;63.18;71143.72;5054773;28;20200;-77
2022/05/14 09:07:17;;;;;;;8.05;1.90;;;;;;;-145.69;64.54;71163.63;5054718;28;20213;-76
2022/05/14 09:09:48;;;;;;;5.47;2.08;;;;;;;-145.69;63.52;71179.53;5054598;28;20199;-77
2022/05/14 09:12:20;;;;;;;5.47;1.98;;;;;;;-145.69;65.98;71221.31;5054247;28;20705;-77
2022/05/14 09:14:52;;;;;;;4.68;2.08;;;;;;;-145.69;67.24;71235.25;5054717;28;20391;-76
2022/05/14 09:17:22;;;;;;;6.63;1.88;;;;;;;-145.69;66.89;71205.41;5065985;28;20226;-76
2022/05/14 09:19:52;;;;;;;4.43;1.80;;;;;;;-145.69;65.04;71159.63;5074406;28;20199;-76
2022/05/14 09:22:28;;;;;;;7.32;2.03;;;;;;;-145.69;66.29;71151.69;5074105;28;20206;-77
2022/05/14 09:25:01;;;;;;;9.48;2.20;;;;;;;-145.69;63.30;71163.63;5074498;28;20194;-76
2022/05/14 09:27:34;;;;;;;5.88;1.80;;;;;;;-145.69;64.78;71191.47;5074153;28;20225;-77
2022/05/14 09:30:05;;;;;;;3.63;1.50;;;;;;;-145.69;63.13;71151.69;5074170;28;20696;-76
2022/05/14 09:32:34;;;;;;;5.53;1.67;;;;;;;-145.69;60.87;71123.81;5072820;28;20195;-76
2022/05/14 09:35:10;;;;;;;8.27;2.28;;;;;;;-145.69;62.19;71143.72;5074103;28;20206;-76
2022/05/14 09:37:36;;;;;;;4.75;1.60;;;;;;;-145.69;60.89;71123.81;5073808;28;20225;-76
2022/05/14 09:40:09;;;;;;;3.20;1.70;;;;;;;-145.69;61.30;71147.69;5074054;28;20203;-76
2022/05/14 09:42:44;;;;;;;5.55;1.98;;;;;;;-145.69;67.46;71131.78;5074056;28;20289;-76
2022/05/14 09:45:22;;;;;;;6.47;2.13;;;;;;;-145.69;61.73;71115.88;5073935;28;20206;-76
2022/05/14 09:47:49;;;;;;;5.80;2.08;;;;;;;-145.69;71.01;71088.00;5073292;28;20202;-76
2022/05/14 09:50:21;;;;;;;8.45;1.80;;;;;;;-145.69;60.55;71082.03;5073565;28;20716;-76
2022/05/14 09:52:59;;;;;;;10.32;1.88;;;;;;;-145.69;59.49;71092.00;5073534;28;20195;-76
2022/05/14 09:55:50;;;;;;;4.85;1.70;;;;;;;-145.69;59.63;71072.09;5053780;28;20203;-77
2022/05/14 09:58:31;;;;;;;5.68;1.63;;;;;;;-145.69;63.89;71066.13;5055515;28;20234;-77
2022/05/14 10:01:06;;;;;;;3.45;1.65;;;;;;;-145.69;64.58;71048.22;5053716;28;20201;-77
2022/05/14 10:03:47;;;;;;;5.03;1.70;;;;;;;-145.69;59.45;71052.19;5055392;28;20205;-77
2022/05/14 10:06:30;;;;;;;5.00;2.10;;;;;;;-145.69;59.46;71032.28;5073529;28;20205;-77
2022/05/14 10:09:16;;;;;;;7.50;1.70;;;;;;;-145.69;58.77;71020.34;5073496;28;20213;-76
2022/05/14 10:11:46;;;;;;;6.82;1.75;;;;;;;-145.69;59.57;71024.34;5073037;28;20199;-76
2022/05/14 10:14:32;;;;;;;6.97;1.80;;;;;;;-145.69;60.89;71062.13;5073342;28;20210;-75
2022/05/14 10:17:10;;;;;;;4.97;1.67;;;;;;;-145.69;58.94;71034.28;5073024;28;20244;-76
2022/05/14 10:19:55;;;;;;;5.28;1.73;;;;;;;-145.69;57.80;71004.44;5072846;28;20226;-76
2022/05/14 10:26:44;;;;;;;7.40;2.28;;;;;;;-145.69;58.94;71004.44;5073341;28;20199;-75
2022/05/14 10:28:14;;;;;;;3.47;1.85;;;;;;;-145.69;55.82;71002.44;5073170;28;20293;-75
2022/05/14 10:30:51;;;;;;;4.10;2.00;;;;;;;-145.69;56.19;70988.53;5073290;28;20206;-75
2022/05/14 10:33:24;;;;;;;5.93;2.10;;;;;;;-145.69;54.59;70996.47;5072705;28;20723;-76
2022/05/14 10:35:57;;;;;;;6.88;2.38;;;;;;;-145.69;57.09;70982.56;5072879;28;20195;-77
2022/05/14 10:38:41;;;;;;;3.80;1.52;;;;;;;-145.69;56.33;70996.47;5072859;28;20231;-77
2022/05/14 10:41:11;;;;;;;4.65;1.70;;;;;;;-145.69;56.90;71000.47;5072967;28;20495;-77
2022/05/14 10:43:44;;;;;;;3.55;1.30;;;;;;;-145.69;52.31;70992.50;5072535;28;20237;-77
2022/05/14 10:46:18;;;;;;;3.63;1.65;;;;;;;-145.69;51.06;71004.44;5072924;28;20229;-77
2022/05/14 10:48:57;;;;;;;5.20;1.65;;;;;;;-145.69;52.15;70996.47;5073067;28;20203;-77
2022/05/14 10:51:29;;;;;;;13.00;1.83;;;;;;;-145.69;52.38;70994.50;5072175;28;20313;-75
2022/05/14 10:54:00;;;;;;;4.72;1.80;;;;;;;-145.69;54.37;70966.63;5065215;28;20191;-77
2022/05/14 10:56:32;;;;;;;5.90;1.80;;;;;;;-145.69;59.67;70938.78;5072710;28;20230;-78
2022/05/14 10:59:07;;;;;;;5.25;2.08;;;;;;;-145.69;58.68;70916.91;5072921;28;20321;-77
2022/05/14 11:01:38;;;;;;;4.70;1.80;;;;;;;-145.69;51.18;70922.88;5072218;28;20289;-77
2022/05/14 11:04:20;;;;;;;9.35;1.90;;;;;;;-145.69;63.31;70926.84;5072703;28;20199;-77
2022/05/14 11:06:55;;;;;;;6.68;2.08;;;;;;;-145.69;57.43;70891.03;5072566;28;20281;-77
2022/05/14 11:09:26;;;;;;;4.70;1.98;;;;;;;-145.69;53.06;70889.03;5072518;28;20243;-79
2022/05/14 11:11:58;;;;;;;3.55;1.95;;;;;;;-145.69;54.66;70910.94;5072613;28;20661;-78
2022/05/14 11:14:37;;;;;;;6.50;2.00;;;;;;;-145.69;50.67;70881.09;5071517;28;20534;-77
2022/05/14 11:17:04;;;;;;;5.50;1.67;;;;;;;-145.69;53.20;70881.09;5072596;28;20198;-78
2022/05/14 11:19:33;;;;;;;5.18;1.70;;;;;;;-145.69;54.67;70853.22;5072476;28;20680;-77
2022/05/14 11:22:01;;;;;;;3.70;1.60;;;;;;;-145.69;48.78;70857.22;5072738;28;20203;-78
2022/05/14 11:24:36;;;;;;;3.22;1.65;;;;;;;-145.69;50.49;70897.00;5072365;28;20217;-77
2022/05/14 11:27:04;;;;;;;4.00;1.45;;;;;;;-145.69;50.05;70881.09;5072426;28;20210;-78
2022/05/14 11:29:36;;;;;;;7.15;1.90;;;;;;;-145.69;51.76;70889.03;5072405;28;20206;-77
2022/05/14 11:32:07;;;;;;;11.88;2.83;;;;;;;-145.69;49.67;70861.19;5072249;28;20249;-77
2022/05/14 11:34:34;;;;;;;3.92;1.85;;;;;;;-145.69;51.83;70841.28;5072255;28;20206;-77
2022/05/14 11:37:04;;;;;;;4.22;1.92;;;;;;;-145.69;48.02;70839.31;5072551;28;20206;-77
2022/05/14 11:39:39;;;;;;;3.22;1.52;;;;;;;-145.69;50.39;70823.38;5072190;28;20226;-77